Terminal Aerodrome Forecast
Issued by NWS

Home | Current Version | Previous Version | Text Only | Print | Product List | Glossary On
Versions: 1 2 3 4 5 6 7 8 9 10 11 12 13 14 15 16 17 18 19 20 21 22 23 24 25 26 27 28 29 30
000
FTUS45 KREV 220500
TAFTRK
TAF
KTRK 220522Z 2206/2306 00000KT P6SM SCT180
     FM220800 00000KT P6SM SCT120 BKN180
     FM222000 22010KT P6SM SCT120 OVC180
     FM230400 20006KT P6SM SCT080 BKN150
      AMD NOT SKED 2206/2212=

USA.gov is the U.S. government's official web portal to all federal, state and local government web resources and services.